Terminal Aerodrome Forecast
Issued by NWS Atlanta, GA

Home | Current Version | Previous Version | Text Only | Print | Product List | Glossary On
Versions: 1 2 3 4 5 6 7 8 9 10 11 12 13 14
000
FTUS42 KFFC 281153 AAA
TAFCSG
TAF AMD
KCSG 281153Z 2812/2912 09008KT P6SM SCT008 BKN015
     FM281400 11010KT P6SM SCT010 BKN020
     FM281700 12010KT P6SM BKN035
     FM282200 12008KT P6SM SCT040 BKN250
     FM290100 12005KT P6SM SCT045 BKN250
     FM290900 10005KT P6SM SCT008 BKN025=

USA.gov is the U.S. government's official web portal to all federal, state and local government web resources and services.